Time;durP1;ratioP1;P1;durP2;ratioP2;P2;SDS_P1;SDS_P2;PMS_P1;PMS_P2;Temp;Humidity;BMP_temperature;BMP_pressure;BME280_temperature;BME280_humidity;BME280_pressure;Samples;Min_cycle;Max_cycle;Signal;HPM_P1;HPM_P2
2022/04/06 00:01:45;;;;;;;10.38;4.53;;;8.40;98.00;;;;;;5019011;28;20430;-68
2022/04/06 00:04:14;;;;;;;9.73;4.20;;;8.40;98.00;;;;;;5024108;28;20030;-67
2022/04/06 00:06:40;;;;;;;6.10;3.35;;;8.30;98.00;;;;;;5024973;28;20033;-67
2022/04/06 00:09:06;;;;;;;5.97;2.97;;;8.30;98.00;;;;;;5030603;28;20040;-67
2022/04/06 00:11:32;;;;;;;9.07;4.38;;;8.20;98.00;;;;;;5027590;28;20339;-67
2022/04/06 00:13:58;;;;;;;10.80;4.75;;;8.30;98.00;;;;;;5020785;28;20429;-66
2022/04/06 00:16:24;;;;;;;8.98;3.90;;;8.30;98.00;;;;;;5017390;28;20108;-66
2022/04/06 00:18:51;;;;;;;10.13;4.78;;;8.30;98.00;;;;;;5018563;28;20104;-66
2022/04/06 00:21:17;;;;;;;11.65;5.70;;;8.30;98.00;;;;;;5017897;28;20316;-65
2022/04/06 00:23:43;;;;;;;7.05;3.92;;;8.30;98.00;;;;;;5015867;28;20485;-67
2022/04/06 00:26:11;;;;;;;8.23;4.32;;;8.20;98.00;;;;;;5029058;28;20124;-68
2022/04/06 00:28:37;;;;;;;7.07;3.53;;;8.20;98.00;;;;;;5021465;28;20553;-68
2022/04/06 00:31:03;;;;;;;8.60;4.50;;;8.20;98.00;;;;;;5020476;28;20104;-66
2022/04/06 00:33:29;;;;;;;5.88;3.42;;;8.20;98.00;;;;;;5033848;28;20025;-67
2022/04/06 00:35:56;;;;;;;6.13;3.42;;;8.20;98.00;;;;;;5032001;28;20025;-67
2022/04/06 00:38:22;;;;;;;5.97;3.17;;;8.20;98.00;;;;;;5025974;28;20036;-66
2022/04/06 00:40:47;;;;;;;5.70;3.30;;;8.20;98.00;;;;;;5027061;28;20402;-67
2022/04/06 00:43:14;;;;;;;5.88;3.63;;;8.10;98.00;;;;;;5033424;28;20069;-67
2022/04/06 00:45:44;;;;;;;4.53;2.47;;;8.10;98.00;;;;;;5030913;28;20026;-67
2022/04/06 00:48:10;;;;;;;5.35;2.55;;;8.10;98.00;;;;;;5025822;28;20460;-67
2022/04/06 00:50:37;;;;;;;5.65;2.83;;;8.10;98.00;;;;;;5027139;28;20030;-67
2022/04/06 00:53:04;;;;;;;7.10;3.10;;;8.10;98.00;;;;;;5023771;28;20025;-66
2022/04/06 00:55:34;;;;;;;4.75;2.63;;;8.10;98.00;;;;;;5027045;28;20292;-66
2022/04/06 00:58:01;;;;;;;4.38;2.42;;;8.10;98.00;;;;;;5026975;28;20108;-67
2022/04/06 01:00:27;;;;;;;5.07;2.67;;;8.10;98.00;;;;;;5020663;28;20113;-67
2022/04/06 01:02:53;;;;;;;4.95;2.80;;;8.10;98.00;;;;;;5022510;28;20434;-66
2022/04/06 01:05:19;;;;;;;4.18;2.55;;;8.10;98.00;;;;;;5021713;28;20129;-67
2022/04/06 01:07:50;;;;;;;5.15;2.65;;;8.00;98.00;;;;;;5022503;28;20029;-67
2022/04/06 01:10:16;;;;;;;4.97;2.60;;;8.00;98.00;;;;;;5024190;28;20040;-67
2022/04/06 01:12:49;;;;;;;4.18;2.55;;;8.00;98.00;;;;;;5029584;28;20104;-67
2022/04/06 01:15:16;;;;;;;4.50;2.72;;;8.00;98.00;;;;;;5022625;28;20036;-67
2022/04/06 01:17:43;;;;;;;3.95;2.08;;;8.00;98.00;;;;;;5025661;28;20403;-67
2022/04/06 01:20:11;;;;;;;4.32;2.63;;;8.00;98.00;;;;;;5021842;28;20028;-67
2022/04/06 01:22:37;;;;;;;4.43;2.90;;;8.00;98.00;;;;;;5023227;28;20033;-67
2022/04/06 01:25:05;;;;;;;5.35;3.00;;;7.90;98.00;;;;;;5023082;28;20105;-67
2022/04/06 01:27:31;;;;;;;5.53;3.30;;;7.90;98.00;;;;;;5025336;28;20442;-68
2022/04/06 01:29:56;;;;;;;6.38;3.80;;;8.00;98.00;;;;;;5024128;28;20030;-68
2022/04/06 01:32:30;;;;;;;6.30;4.20;;;8.00;98.00;;;;;;5035610;28;20480;-67
2022/04/06 01:34:56;;;;;;;6.05;3.90;;;8.10;98.00;;;;;;5019580;28;20116;-67
2022/04/06 01:37:22;;;;;;;6.38;3.95;;;8.10;98.00;;;;;;5030015;28;20078;-67
2022/04/06 01:39:49;;;;;;;6.25;3.72;;;8.10;98.00;;;;;;5033146;28;20112;-68
2022/04/06 01:42:17;;;;;;;8.35;4.47;;;8.10;98.00;;;;;;5034880;28;20030;-67
2022/04/06 01:44:45;;;;;;;6.60;4.20;;;8.20;98.00;;;;;;5035574;28;20021;-67
2022/04/06 01:47:17;;;;;;;8.18;4.57;;;8.10;98.00;;;;;;5022750;28;20030;-66
2022/04/06 01:52:28;;;;;;;6.10;4.47;;;8.10;98.00;;;;;;5024288;28;20062;-68
2022/04/06 01:55:02;;;;;;;6.18;4.35;;;8.10;98.00;;;;;;5035247;28;20022;-67
2022/04/06 01:57:29;;;;;;;7.53;4.40;;;8.10;98.00;;;;;;5031804;28;20018;-66
2022/04/06 01:59:56;;;;;;;6.38;4.30;;;8.00;98.00;;;;;;5026703;28;20029;-67
2022/04/06 02:02:24;;;;;;;7.18;4.85;;;8.10;98.00;;;;;;5025449;28;20025;-67
2022/04/06 02:04:53;;;;;;;6.75;4.50;;;8.10;98.00;;;;;;5020905;28;20026;-67
2022/04/06 02:07:19;;;;;;;6.43;4.63;;;8.20;98.00;;;;;;5034652;28;20079;-66
2022/04/06 02:09:45;;;;;;;8.38;4.65;;;8.10;98.00;;;;;;5030055;28;20037;-67
2022/04/06 02:12:11;;;;;;;6.78;4.50;;;8.10;98.00;;;;;;5024717;28;20046;-66
2022/04/06 02:14:41;;;;;;;6.50;4.90;;;8.10;98.00;;;;;;5032336;28;20056;-66
2022/04/06 02:17:08;;;;;;;6.40;4.45;;;8.10;98.00;;;;;;5023299;28;20022;-66
2022/04/06 02:19:36;;;;;;;6.07;4.47;;;8.10;98.00;;;;;;5031841;28;20079;-65
2022/04/06 02:22:02;;;;;;;6.40;4.43;;;8.00;98.00;;;;;;5022378;28;20064;-66
2022/04/06 02:24:31;;;;;;;7.93;4.78;;;8.00;98.00;;;;;;5031395;28;20063;-68
2022/04/06 02:26:57;;;;;;;6.35;4.00;;;8.00;98.00;;;;;;5028664;28;20467;-67
2022/04/06 02:29:25;;;;;;;6.28;4.43;;;8.00;98.00;;;;;;5028120;28;20053;-66
2022/04/06 02:31:54;;;;;;;6.38;4.70;;;8.00;98.00;;;;;;5023090;28;20032;-67
2022/04/06 02:34:19;;;;;;;7.22;5.13;;;7.90;98.00;;;;;;5032385;28;20028;-67
2022/04/06 02:36:45;;;;;;;5.85;4.22;;;7.90;98.00;;;;;;5020380;28;20029;-67
2022/04/06 02:39:11;;;;;;;7.20;4.30;;;7.90;98.00;;;;;;5031253;28;20026;-68
2022/04/06 02:41:36;;;;;;;6.97;4.72;;;7.90;98.00;;;;;;5031894;28;20083;-67
2022/04/06 02:44:03;;;;;;;6.05;4.03;;;7.80;98.00;;;;;;5024576;28;20088;-67
2022/04/06 02:46:30;;;;;;;6.45;4.25;;;7.90;98.00;;;;;;5023031;28;20021;-67
2022/04/06 02:48:56;;;;;;;7.53;4.28;;;7.90;98.00;;;;;;5026317;28;20030;-67
2022/04/06 02:51:22;;;;;;;7.70;5.03;;;7.90;98.00;;;;;;5018479;28;20032;-67
2022/04/06 02:53:47;;;;;;;6.35;4.55;;;7.90;98.00;;;;;;5031461;28;20500;-67
2022/04/06 02:56:16;;;;;;;6.15;4.07;;;7.90;98.00;;;;;;5031057;28;20022;-67
2022/04/06 02:58:42;;;;;;;7.40;4.47;;;7.90;98.00;;;;;;5031465;28;20390;-66
2022/04/06 03:01:08;;;;;;;6.25;4.45;;;7.80;98.00;;;;;;5024617;28;20040;-67
2022/04/06 03:03:33;;;;;;;6.15;4.25;;;7.80;98.00;;;;;;5018688;28;20041;-67
2022/04/06 03:05:59;;;;;;;5.70;3.70;;;7.80;98.00;;;;;;5026018;28;20056;-65
2022/04/06 03:08:24;;;;;;;5.97;4.18;;;7.80;98.00;;;;;;5031903;28;20372;-65
2022/04/06 03:10:50;;;;;;;5.45;4.07;;;7.80;98.00;;;;;;5028835;28;20505;-65
2022/04/06 03:13:22;;;;;;;6.47;4.78;;;7.90;98.00;;;;;;5026197;28;20033;-65
2022/04/06 03:15:47;;;;;;;7.32;3.92;;;7.80;98.00;;;;;;5016729;28;20040;-65
2022/04/06 03:18:13;;;;;;;6.85;4.97;;;7.80;98.00;;;;;;5023778;28;20022;-67
2022/04/06 03:20:38;;;;;;;8.40;5.00;;;7.80;98.00;;;;;;5032089;28;20073;-67
2022/04/06 03:23:08;;;;;;;7.32;4.70;;;7.80;98.00;;;;;;5023450;28;20028;-67
2022/04/06 03:25:34;;;;;;;8.60;6.10;;;7.80;98.00;;;;;;5016508;28;20030;-68
2022/04/06 03:28:00;;;;;;;7.07;4.93;;;7.80;98.00;;;;;;5026351;28;20022;-67
2022/04/06 03:30:26;;;;;;;6.78;4.20;;;7.80;98.00;;;;;;5030137;28;20028;-67
2022/04/06 03:32:52;;;;;;;6.93;4.82;;;7.80;98.00;;;;;;5028041;28;20022;-66
2022/04/06 03:35:18;;;;;;;6.63;4.57;;;7.80;98.00;;;;;;5019765;28;20075;-67
2022/04/06 03:37:44;;;;;;;6.40;4.70;;;7.80;98.00;;;;;;5017144;28;20091;-66
2022/04/06 03:40:10;;;;;;;6.40;4.18;;;7.80;98.00;;;;;;5024692;28;20049;-67
2022/04/06 03:42:36;;;;;;;7.18;4.30;;;7.90;98.00;;;;;;5022488;28;20116;-66
2022/04/06 03:45:02;;;;;;;8.38;4.47;;;7.80;98.00;;;;;;5016251;28;20426;-66
2022/04/06 03:47:31;;;;;;;6.70;4.25;;;7.90;98.00;;;;;;5018844;28;20112;-66
2022/04/06 03:49:58;;;;;;;6.60;4.25;;;7.90;98.00;;;;;;5020800;28;20040;-66
2022/04/06 03:52:25;;;;;;;6.43;4.45;;;7.80;98.00;;;;;;5023747;28;20477;-67
2022/04/06 03:54:51;;;;;;;8.23;4.78;;;7.80;98.00;;;;;;5016963;28;20367;-66
2022/04/06 03:57:17;;;;;;;8.38;5.78;;;7.70;98.00;;;;;;5022864;28;20032;-67
2022/04/06 03:59:43;;;;;;;7.95;5.75;;;7.70;98.00;;;;;;5018022;28;20022;-66
2022/04/06 04:02:09;;;;;;;7.90;5.32;;;7.60;98.00;;;;;;5029470;28;20415;-67
2022/04/06 04:04:34;;;;;;;7.50;5.20;;;7.70;98.00;;;;;;5017606;28;20125;-67
2022/04/06 04:07:01;;;;;;;7.75;5.38;;;7.70;98.00;;;;;;5026227;28;20083;-67
2022/04/06 04:09:29;;;;;;;9.65;7.05;;;7.80;98.00;;;;;;5021961;28;20052;-67
2022/04/06 04:11:56;;;;;;;9.00;6.57;;;7.80;98.00;;;;;;5024125;28;20042;-67
2022/04/06 04:14:22;;;;;;;8.32;5.57;;;7.80;98.00;;;;;;5022463;28;20335;-66
2022/04/06 04:16:48;;;;;;;7.45;5.57;;;7.70;98.00;;;;;;5028026;28;20105;-66
2022/04/06 04:19:15;;;;;;;7.57;5.78;;;7.70;98.00;;;;;;5024636;28;20116;-67
2022/04/06 04:21:41;;;;;;;7.68;5.75;;;7.70;98.00;;;;;;5017245;28;20029;-67
2022/04/06 04:24:08;;;;;;;7.68;5.05;;;7.80;98.00;;;;;;5020155;28;20359;-67
2022/04/06 04:26:36;;;;;;;8.85;6.03;;;7.80;98.00;;;;;;5017797;28;20040;-67
2022/04/06 04:29:05;;;;;;;7.15;5.60;;;7.80;98.00;;;;;;5023568;28;20033;-66
2022/04/06 04:31:31;;;;;;;7.63;5.47;;;7.80;98.00;;;;;;5025040;28;20037;-67
2022/04/06 04:33:57;;;;;;;7.68;5.80;;;7.80;98.00;;;;;;5026991;28;20037;-66
2022/04/06 04:36:24;;;;;;;7.45;6.03;;;7.80;98.00;;;;;;5029914;28;20026;-68
2022/04/06 04:38:49;;;;;;;8.23;6.22;;;7.80;98.00;;;;;;5026669;28;20025;-67
2022/04/06 04:41:16;;;;;;;9.13;6.18;;;7.80;98.00;;;;;;5021504;28;20347;-67
2022/04/06 04:43:42;;;;;;;7.53;5.75;;;7.80;98.00;;;;;;5027983;28;20026;-67
2022/04/06 04:46:08;;;;;;;8.65;5.18;;;7.80;98.00;;;;;;5028791;28;20426;-67
2022/04/06 04:48:34;;;;;;;8.20;5.85;;;7.80;98.00;;;;;;5031002;28;20024;-67
2022/04/06 04:51:00;;;;;;;7.28;5.30;;;7.80;98.00;;;;;;5022782;28;20026;-67
2022/04/06 04:53:26;;;;;;;7.85;5.90;;;7.90;98.00;;;;;;5029098;28;20411;-67
2022/04/06 04:55:53;;;;;;;9.57;6.32;;;7.90;98.00;;;;;;5038596;28;20446;-67
2022/04/06 04:58:20;;;;;;;7.80;5.50;;;7.90;98.00;;;;;;5028219;28;20017;-65
2022/04/06 05:00:46;;;;;;;9.07;6.75;;;7.90;98.00;;;;;;5044636;28;20025;-66
2022/04/06 05:03:12;;;;;;;8.15;5.63;;;7.90;98.00;;;;;;5028647;28;20038;-68
2022/04/06 05:05:40;;;;;;;7.97;6.05;;;7.90;98.00;;;;;;5030989;28;20033;-67
2022/04/06 05:08:06;;;;;;;9.30;6.40;;;7.90;98.00;;;;;;5020776;28;20049;-65
2022/04/06 05:10:32;;;;;;;10.75;7.20;;;8.00;98.00;;;;;;5024938;28;20427;-64
2022/04/06 05:12:57;;;;;;;9.20;7.10;;;8.00;98.00;;;;;;5033231;28;20075;-67
2022/04/06 05:15:24;;;;;;;9.43;7.25;;;8.00;98.00;;;;;;5030226;28;20339;-66
2022/04/06 05:17:49;;;;;;;8.82;6.80;;;8.10;98.00;;;;;;5023939;28;20033;-67
2022/04/06 05:20:15;;;;;;;9.48;6.53;;;8.10;98.00;;;;;;5027777;28;20037;-67
2022/04/06 05:22:43;;;;;;;8.88;6.50;;;8.10;98.00;;;;;;5019632;28;20332;-67
2022/04/06 05:25:09;;;;;;;7.60;5.88;;;8.20;98.00;;;;;;5029348;28;20037;-66
2022/04/06 05:27:49;;;;;;;8.32;6.10;;;8.20;98.00;;;;;;5018893;28;20033;-67
2022/04/06 05:30:17;;;;;;;8.50;6.25;;;8.20;98.00;;;;;;5025535;28;20030;-66
2022/04/06 05:32:44;;;;;;;8.57;6.72;;;8.30;98.00;;;;;;5021118;28;20026;-66
2022/04/06 05:35:10;;;;;;;8.02;5.72;;;8.30;98.00;;;;;;5017911;28;20026;-66
2022/04/06 05:37:38;;;;;;;8.90;5.85;;;8.30;98.00;;;;;;5018481;28;20033;-67
2022/04/06 05:40:05;;;;;;;9.70;7.03;;;8.30;98.00;;;;;;5018411;28;20025;-66
2022/04/06 05:42:31;;;;;;;7.97;5.93;;;8.30;98.00;;;;;;5029982;28;20108;-66
2022/04/06 05:44:57;;;;;;;9.77;5.63;;;8.30;98.00;;;;;;5022296;28;20534;-65
2022/04/06 05:47:23;;;;;;;9.82;6.72;;;8.30;98.00;;;;;;5021690;28;20111;-67
2022/04/06 05:49:49;;;;;;;8.07;5.22;;;8.40;98.00;;;;;;5018981;28;20033;-66
2022/04/06 05:52:14;;;;;;;8.90;5.60;;;8.40;98.00;;;;;;5029153;28;20017;-68
2022/04/06 05:54:43;;;;;;;6.57;4.57;;;8.40;98.00;;;;;;5036243;28;20036;-65
2022/04/06 05:57:09;;;;;;;6.97;5.00;;;8.40;98.00;;;;;;5032449;28;20022;-66
2022/04/06 05:59:36;;;;;;;7.53;5.05;;;8.50;98.00;;;;;;5021338;28;20422;-67
2022/04/06 06:02:03;;;;;;;8.98;5.25;;;8.50;98.00;;;;;;5023899;28;20060;-66
2022/04/06 06:04:29;;;;;;;7.47;5.22;;;8.50;98.00;;;;;;5030957;28;20018;-66
2022/04/06 06:06:54;;;;;;;14.00;7.22;;;8.50;98.00;;;;;;5034064;28;20113;-65
2022/04/06 06:09:20;;;;;;;7.15;4.18;;;8.50;98.00;;;;;;5033100;28;20029;-65
2022/04/06 06:11:46;;;;;;;6.95;3.78;;;8.50;98.00;;;;;;5026637;28;20072;-66
2022/04/06 06:14:12;;;;;;;6.60;4.05;;;8.50;98.00;;;;;;5036663;28;20029;-67
2022/04/06 06:16:38;;;;;;;6.00;4.00;;;8.60;98.00;;;;;;5035318;28;20410;-66
2022/04/06 06:19:03;;;;;;;7.30;4.50;;;8.60;98.00;;;;;;5037738;28;20100;-67
2022/04/06 06:21:32;;;;;;;7.75;3.85;;;8.70;98.00;;;;;;5022848;28;20326;-67
2022/04/06 06:24:05;;;;;;;7.30;3.30;;;8.70;98.00;;;;;;5029771;28;20033;-66
2022/04/06 06:26:31;;;;;;;5.13;3.05;;;8.80;98.00;;;;;;5025147;28;20022;-67
2022/04/06 06:28:57;;;;;;;4.88;2.78;;;8.80;98.00;;;;;;5022596;28;20037;-66
2022/04/06 06:31:25;;;;;;;4.82;3.17;;;8.80;98.00;;;;;;5036269;28;20095;-67
2022/04/06 06:33:51;;;;;;;5.97;3.55;;;8.80;98.00;;;;;;5032696;28;20026;-66
2022/04/06 06:36:17;;;;;;;6.15;3.92;;;8.90;98.00;;;;;;5020204;28;20053;-66
2022/04/06 06:38:43;;;;;;;13.15;7.72;;;9.00;98.00;;;;;;5017611;28;20040;-67
2022/04/06 06:41:08;;;;;;;19.15;10.45;;;9.10;98.00;;;;;;5017236;28;20104;-65
2022/04/06 06:43:36;;;;;;;9.05;6.10;;;9.10;98.00;;;;;;5019573;28;20080;-66
2022/04/06 06:46:02;;;;;;;5.95;3.75;;;9.10;98.00;;;;;;5027110;28;20052;-67
2022/04/06 06:48:27;;;;;;;5.93;4.07;;;9.00;97.90;;;;;;5023666;28;20406;-67
2022/04/06 06:50:53;;;;;;;5.10;3.15;;;9.10;98.00;;;;;;5016243;28;20370;-68
2022/04/06 06:53:19;;;;;;;8.13;3.22;;;9.00;98.00;;;;;;5024471;28;20032;-66
2022/04/06 06:55:44;;;;;;;4.70;2.65;;;9.00;98.00;;;;;;5036851;28;20425;-67
2022/04/06 06:58:10;;;;;;;5.18;2.15;;;9.00;98.00;;;;;;5028493;28;20022;-66
2022/04/06 07:00:36;;;;;;;4.53;2.47;;;9.00;97.90;;;;;;5017982;28;20048;-67
2022/04/06 07:03:01;;;;;;;4.90;2.85;;;9.10;97.70;;;;;;5020821;28;20056;-67
2022/04/06 07:05:28;;;;;;;4.25;2.72;;;9.30;97.70;;;;;;5036207;28;20049;-67
2022/04/06 07:07:55;;;;;;;4.15;2.50;;;9.40;97.60;;;;;;5033037;28;20311;-67
2022/04/06 07:10:26;;;;;;;3.85;2.25;;;9.50;97.20;;;;;;5036308;28;20093;-67
2022/04/06 07:12:53;;;;;;;3.08;1.88;;;9.50;96.90;;;;;;5022748;28;20029;-67
2022/04/06 07:15:19;;;;;;;6.22;2.92;;;9.60;96.90;;;;;;5015768;28;20022;-68
2022/04/06 07:17:49;;;;;;;4.00;2.50;;;9.70;96.80;;;;;;5025537;28;20500;-67
2022/04/06 07:20:15;;;;;;;6.68;2.90;;;9.70;96.40;;;;;;5016630;28;20026;-65
2022/04/06 07:22:41;;;;;;;4.10;2.20;;;9.70;96.60;;;;;;5020254;28;20041;-67
2022/04/06 07:25:08;;;;;;;5.25;3.05;;;9.60;96.40;;;;;;5017607;28;20616;-66
2022/04/06 07:27:37;;;;;;;4.05;2.58;;;9.70;96.70;;;;;;5018224;28;20018;-67
2022/04/06 07:30:05;;;;;;;4.80;2.30;;;9.70;96.60;;;;;;5034968;28;20121;-67
2022/04/06 07:32:31;;;;;;;4.55;2.58;;;9.70;96.60;;;;;;5036292;28;20021;-66
2022/04/06 07:34:57;;;;;;;3.55;2.10;;;9.70;97.10;;;;;;5036315;28;20017;-67
2022/04/06 07:37:22;;;;;;;4.68;2.63;;;9.50;96.90;;;;;;5034652;28;20027;-67
2022/04/06 07:39:48;;;;;;;5.53;2.35;;;9.70;97.00;;;;;;5015402;28;20030;-66
2022/04/06 07:42:14;;;;;;;4.68;2.60;;;9.60;96.90;;;;;;5016419;28;20036;-67
2022/04/06 07:44:40;;;;;;;3.65;1.92;;;9.60;97.10;;;;;;5016375;28;20030;-66
2022/04/06 07:47:05;;;;;;;4.80;2.35;;;9.70;97.20;;;;;;5014248;28;20034;-66
2022/04/06 07:49:31;;;;;;;4.97;2.40;;;9.70;97.30;;;;;;5032862;28;20029;-67
2022/04/06 07:51:57;;;;;;;6.85;2.88;;;9.60;97.10;;;;;;5036089;28;20102;-67
2022/04/06 07:54:22;;;;;;;6.35;2.83;;;9.60;97.30;;;;;;5036120;28;20025;-66
2022/04/06 07:56:48;;;;;;;4.50;2.58;;;9.80;97.60;;;;;;5036033;28;20025;-67
2022/04/06 07:59:14;;;;;;;6.75;3.97;;;9.80;97.20;;;;;;5021038;28;20343;-66
2022/04/06 08:01:40;;;;;;;6.03;3.30;;;10.00;97.10;;;;;;5014985;28;20044;-67
2022/04/06 08:04:05;;;;;;;5.53;3.50;;;10.10;96.50;;;;;;5016240;28;20028;-67
2022/04/06 08:06:31;;;;;;;6.10;3.13;;;10.20;96.50;;;;;;5015944;28;20041;-67
2022/04/06 08:08:59;;;;;;;3.95;2.15;;;10.30;96.70;;;;;;5027967;28;20060;-67
2022/04/06 08:11:25;;;;;;;4.78;2.88;;;10.30;96.00;;;;;;5035681;28;20124;-66
2022/04/06 08:13:50;;;;;;;5.57;2.85;;;10.20;96.30;;;;;;5035841;28;20025;-67
2022/04/06 08:16:16;;;;;;;4.57;2.38;;;10.30;96.60;;;;;;5034800;28;20402;-67
2022/04/06 08:18:42;;;;;;;4.43;2.40;;;10.30;95.90;;;;;;5029804;28;20112;-67
2022/04/06 08:21:09;;;;;;;4.43;2.45;;;10.30;96.10;;;;;;5019848;28;20104;-67
2022/04/06 08:23:35;;;;;;;7.75;3.88;;;10.30;96.00;;;;;;5020076;28;20029;-67
2022/04/06 08:26:01;;;;;;;6.85;3.92;;;10.30;96.30;;;;;;5019892;28;20327;-66
2022/04/06 08:28:26;;;;;;;5.60;2.70;;;10.30;96.50;;;;;;5020009;28;20030;-67
2022/04/06 08:30:52;;;;;;;4.28;2.67;;;10.20;96.50;;;;;;5017574;28;20100;-66
2022/04/06 08:33:18;;;;;;;4.75;2.85;;;10.10;96.70;;;;;;5019765;28;20030;-67
2022/04/06 08:35:43;;;;;;;8.85;3.45;;;10.30;96.90;;;;;;5026478;28;20049;-67
2022/04/06 08:38:15;;;;;;;5.95;3.20;;;10.60;96.10;;;;;;5039440;28;20083;-67
2022/04/06 08:40:42;;;;;;;5.03;2.70;;;10.50;95.80;;;;;;5039523;28;20032;-67
2022/04/06 08:43:09;;;;;;;5.88;2.47;;;10.40;96.10;;;;;;5039446;28;20029;-67
2022/04/06 08:45:39;;;;;;;5.20;2.90;;;10.40;96.30;;;;;;5032178;28;20030;-67
2022/04/06 08:48:09;;;;;;;8.98;3.30;;;10.50;96.00;;;;;;5019617;28;20022;-67
2022/04/06 08:50:36;;;;;;;6.95;2.78;;;10.50;96.00;;;;;;5019354;28;20026;-67
2022/04/06 08:53:04;;;;;;;5.90;2.90;;;10.50;96.10;;;;;;5019437;28;20014;-66
2022/04/06 08:55:31;;;;;;;6.13;3.00;;;10.40;96.40;;;;;;5023150;28;20358;-66
2022/04/06 08:57:57;;;;;;;8.30;3.30;;;10.70;96.00;;;;;;5039078;28;20025;-64
2022/04/06 09:00:27;;;;;;;8.07;2.63;;;11.00;95.00;;;;;;5038001;28;20034;-64
2022/04/06 09:02:53;;;;;;;8.00;3.05;;;11.10;94.90;;;;;;5039022;28;20037;-65
2022/04/06 09:05:26;;;;;;;6.20;3.20;;;11.20;94.10;;;;;;5037629;28;20318;-65
2022/04/06 09:07:52;;;;;;;4.30;2.20;;;11.40;93.50;;;;;;5024230;28;20080;-67
2022/04/06 09:10:35;;;;;;;5.88;2.47;;;11.60;93.70;;;;;;5018810;28;20029;-66
2022/04/06 09:13:15;;;;;;;14.32;7.93;;;11.50;93.30;;;;;;5017825;28;20105;-66
2022/04/06 09:15:43;;;;;;;9.10;3.97;;;11.90;92.90;;;;;;5016659;28;20039;-66
2022/04/06 09:18:09;;;;;;;4.43;2.10;;;12.00;92.20;;;;;;5033545;28;20324;-67
2022/04/06 09:20:35;;;;;;;7.55;2.17;;;12.20;91.60;;;;;;5037579;28;20029;-67
2022/04/06 09:23:02;;;;;;;4.25;1.80;;;13.00;89.50;;;;;;5037602;28;20033;-68
2022/04/06 09:25:36;;;;;;;3.80;1.58;;;12.80;88.70;;;;;;5037515;28;20104;-66
2022/04/06 09:28:08;;;;;;;4.95;1.85;;;12.70;89.20;;;;;;5022148;28;20310;-66
2022/04/06 09:30:37;;;;;;;4.38;2.20;;;12.90;88.50;;;;;;5016314;28;20026;-66
2022/04/06 09:33:11;;;;;;;2.10;1.20;;;12.50;88.70;;;;;;5017594;28;20022;-66
2022/04/06 09:35:37;;;;;;;2.75;1.45;;;12.10;90.00;;;;;;5017686;28;20105;-65
2022/04/06 09:38:22;;;;;;;3.50;1.67;;;11.80;90.70;;;;;;5031830;28;20378;-67
2022/04/06 09:41:01;;;;;;;2.85;1.40;;;11.70;91.10;;;;;;5037284;28;20100;-66
2022/04/06 09:43:30;;;;;;;7.80;2.80;;;11.70;91.00;;;;;;5037170;28;20022;-66
2022/04/06 09:49:00;;;;;;;2.85;1.30;;;11.50;91.60;;;;;;5037300;28;20056;-67
2022/04/06 09:51:27;;;;;;;3.38;1.20;;;12.00;90.80;;;;;;5035177;28;20164;-66
2022/04/06 09:53:53;;;;;;;2.55;1.23;;;12.80;88.40;;;;;;5019157;28;20022;-66
2022/04/06 09:56:20;;;;;;;3.97;1.10;;;13.30;87.10;;;;;;5028496;28;20014;-67
2022/04/06 09:58:47;;;;;;;3.72;1.05;;;13.80;85.50;;;;;;5020404;28;20030;-66
2022/04/06 10:01:16;;;;;;;3.95;1.20;;;14.70;83.50;;;;;;5016017;28;20065;-66
2022/04/06 10:03:50;;;;;;;2.80;1.02;;;15.30;80.90;;;;;;5032048;28;20075;-67
2022/04/06 10:06:17;;;;;;;1.98;0.90;;;14.70;80.90;;;;;;5024592;28;20030;-66
2022/04/06 10:08:43;;;;;;;3.15;1.20;;;14.80;81.70;;;;;;5031629;28;20387;-67
2022/04/06 10:11:11;;;;;;;3.83;1.50;;;15.60;80.10;;;;;;4997992;28;1122328;-66
2022/04/06 10:13:39;;;;;;;4.05;1.30;;;16.40;77.70;;;;;;5025258;28;20155;-67
2022/04/06 10:16:10;;;;;;;2.45;0.93;;;17.30;75.10;;;;;;5017583;28;20018;-67
2022/04/06 10:18:36;;;;;;;3.03;0.98;;;17.50;72.80;;;;;;5030238;28;20099;-67
2022/04/06 10:21:10;;;;;;;4.28;1.10;;;16.30;75.70;;;;;;5037792;28;20040;-67
2022/04/06 10:23:39;;;;;;;;;;;15.20;78.50;;;;;;5025342;28;20045;-66
2022/04/06 10:26:39;;;;;;;10.50;4.60;;;14.10;81.30;;;;;;5026360;28;19935;-66
2022/04/06 10:29:05;;;;;;;5.68;1.80;;;13.90;83.60;;;;;;5022253;28;20034;-66
2022/04/06 10:31:31;;;;;;;3.60;1.40;;;14.80;81.40;;;;;;5017215;28;20449;-65
2022/04/06 10:34:30;;;;;;;5.13;2.30;;;14.80;79.50;;;;;;5017698;28;20038;-66
2022/04/06 10:37:16;;;;;;;12.48;6.18;;;14.00;80.90;;;;;;5017438;28;20026;-67
2022/04/06 10:39:58;;;;;;;3.30;1.10;;;13.60;82.80;;;;;;5035899;28;20045;-66
2022/04/06 10:42:37;;;;;;;3.63;1.20;;;14.60;80.80;;;;;;5034568;28;20057;-66
2022/04/06 10:45:26;;;;;;;7.25;2.80;;;14.40;80.40;;;;;;5036449;28;20087;-66
2022/04/06 10:48:18;;;;;;;7.40;1.95;;;15.00;80.60;;;;;;5017148;28;20034;-67
2022/04/06 10:50:46;;;;;;;1.83;0.90;;;16.10;79.10;;;;;;5019054;28;20026;-66
2022/04/06 10:53:20;;;;;;;2.75;0.63;;;16.60;74.90;;;;;;5032430;28;20128;-66
2022/04/06 10:56:16;;;;;;;4.43;0.80;;;16.50;74.60;;;;;;5033472;28;20072;-66
2022/04/06 10:58:57;;;;;;;2.08;0.88;;;16.90;73.50;;;;;;5034918;28;20049;-66
2022/04/06 11:01:33;;;;;;;2.15;0.70;;;17.20;71.90;;;;;;5026789;28;20022;-66
2022/04/06 11:04:20;;;;;;;1.85;0.75;;;17.60;71.70;;;;;;5017929;28;20022;-66
2022/04/06 11:06:59;;;;;;;4.07;1.02;;;17.80;71.00;;;;;;5033524;28;20025;-66
2022/04/06 11:12:22;;;;;;;1.33;0.65;;;17.80;72.00;;;;;;5021299;28;20121;-67
2022/04/06 11:14:49;;;;;;;1.60;0.63;;;18.10;70.40;;;;;;5028431;28;20029;-67
2022/04/06 11:17:35;;;;;;;1.00;0.60;;;18.50;69.90;;;;;;5021678;28;20374;-66
2022/04/06 11:20:09;;;;;;;1.77;0.85;;;17.90;69.80;;;;;;5032586;28;20049;-67
2022/04/06 11:22:38;;;;;;;1.38;0.77;;;17.00;72.70;;;;;;5034432;28;20117;-66
2022/04/06 11:25:09;;;;;;;3.17;1.23;;;16.70;73.60;;;;;;5020978;28;20040;-67
2022/04/06 11:27:38;;;;;;;2.90;0.90;;;17.50;73.00;;;;;;5021506;28;20358;-66
2022/04/06 11:30:13;;;;;;;2.20;0.80;;;17.90;71.10;;;;;;5034215;28;20172;-66
2022/04/06 11:32:49;;;;;;;2.15;1.00;;;17.30;71.30;;;;;;5027601;28;20040;-67
2022/04/06 11:35:16;;;;;;;3.22;0.95;;;17.60;72.40;;;;;;5030177;28;20040;-65
2022/04/06 11:37:49;;;;;;;1.55;0.80;;;17.60;70.50;;;;;;5033372;28;20033;-66
2022/04/06 11:40:17;;;;;;;2.22;1.10;;;16.90;72.90;;;;;;5033655;28;20421;-67
2022/04/06 11:42:48;;;;;;;2.30;1.10;;;17.00;72.80;;;;;;5050154;28;20039;-66
2022/04/06 11:45:23;;;;;;;1.58;0.65;;;17.70;72.60;;;;;;5039136;28;20036;-66
2022/04/06 11:47:56;;;;;;;2.42;0.98;;;17.60;70.90;;;;;;5036326;28;20064;-65
2022/04/06 11:50:44;;;;;;;2.95;1.30;;;16.70;72.10;;;;;;5024850;28;20025;-65
2022/04/06 11:53:15;;;;;;;2.78;0.90;;;16.70;73.30;;;;;;5023980;28;20108;-65
2022/04/06 11:55:47;;;;;;;1.48;0.75;;;16.80;72.90;;;;;;5025258;28;20371;-65
2022/04/06 11:58:38;;;;;;;2.33;0.90;;;17.00;71.80;;;;;;5039997;28;20024;-65
2022/04/06 12:01:08;;;;;;;2.55;0.80;;;17.60;70.60;;;;;;5021027;28;20053;-65
2022/04/06 12:03:39;;;;;;;1.42;0.77;;;17.50;70.70;;;;;;5018660;28;20022;-65
2022/04/06 12:06:09;;;;;;;1.55;0.75;;;16.80;71.70;;;;;;5034002;28;20029;-65
2022/04/06 12:08:36;;;;;;;1.40;0.73;;;16.00;74.20;;;;;;5027134;28;20120;-67
2022/04/06 12:11:02;;;;;;;2.22;0.80;;;16.40;72.70;;;;;;5032000;28;20049;-66
2022/04/06 12:13:44;;;;;;;7.97;2.17;;;16.30;73.10;;;;;;5033443;28;20053;-66
2022/04/06 12:16:10;;;;;;;3.45;1.00;;;15.90;74.30;;;;;;5030395;28;20029;-66
2022/04/06 12:18:41;;;;;;;8.43;1.55;;;16.10;74.30;;;;;;5030242;28;20048;-66
2022/04/06 12:21:24;;;;;;;7.10;2.80;;;15.90;73.90;;;;;;5015952;28;20058;-67
2022/04/06 12:23:51;;;;;;;9.68;4.05;;;16.10;75.40;;;;;;5018008;28;20034;-65
2022/04/06 12:26:19;;;;;;;10.77;4.03;;;16.90;72.10;;;;;;5024379;28;20153;-66
2022/04/06 12:28:49;;;;;;;13.52;6.65;;;17.20;70.80;;;;;;5026832;28;20022;-65
2022/04/06 12:31:15;;;;;;;2.60;1.20;;;17.10;71.40;;;;;;5023350;28;20057;-66
2022/04/06 12:33:50;;;;;;;2.97;0.70;;;17.40;71.90;;;;;;5017036;28;20026;-66
2022/04/06 12:36:16;;;;;;;3.30;1.15;;;18.20;69.50;;;;;;5021158;28;20370;-65
2022/04/06 12:38:58;;;;;;;2.58;1.02;;;18.50;68.20;;;;;;5015963;28;20076;-67
2022/04/06 12:41:25;;;;;;;2.55;0.90;;;17.80;69.50;;;;;;5021062;28;20026;-66
2022/04/06 12:43:53;;;;;;;1.42;0.70;;;17.50;70.50;;;;;;5015814;28;20061;-66
2022/04/06 12:46:44;;;;;;;1.80;0.77;;;17.10;70.10;;;;;;5020337;28;20053;-66
2022/04/06 12:49:24;;;;;;;1.52;0.80;;;17.10;70.30;;;;;;5023861;28;20330;-65
2022/04/06 12:52:03;;;;;;;3.00;0.80;;;17.20;70.60;;;;;;5026739;28;20481;-65
2022/04/06 12:54:33;;;;;;;2.63;0.77;;;17.40;69.60;;;;;;5030126;28;20026;-65
2022/04/06 12:57:17;;;;;;;2.45;1.15;;;17.00;70.80;;;;;;5024278;28;20026;-66
2022/04/06 12:59:46;;;;;;;;;;;16.70;70.90;;;;;;5028803;28;20071;-64
2022/04/06 13:02:19;;;;;;;2.85;1.20;;;16.70;70.50;;;;;;5033968;28;19905;-65
2022/04/06 13:04:44;;;;;;;2.50;1.08;;;17.20;71.30;;;;;;5038882;28;20029;-65
2022/04/06 13:07:10;;;;;;;2.20;0.90;;;18.10;69.00;;;;;;5037296;28;20445;-65
2022/04/06 13:09:52;;;;;;;1.63;0.80;;;18.00;68.70;;;;;;5023814;28;20076;-66